createdAt,value
2022-11-10T00:03:09.797Z,3.6
2022-11-10T00:18:21.541Z,3.5
2022-11-10T00:33:30.766Z,4.3
2022-11-10T00:48:39.876Z,4.4
2022-11-10T01:03:49.440Z,3.3
2022-11-10T01:18:58.464Z,4.8
2022-11-10T01:34:07.694Z,5.2
2022-11-10T01:49:18.003Z,5.4
2022-11-10T02:04:28.215Z,6.2
2022-11-10T02:19:37.849Z,6.2
2022-11-10T02:34:46.632Z,7.4
2022-11-10T02:50:01.455Z,6.4
2022-11-10T03:07:30.045Z,8.6
2022-11-10T03:22:40.561Z,6.7
2022-11-10T03:37:50.378Z,7.4
2022-11-10T03:52:59.848Z,8.5
2022-11-10T04:08:11.783Z,8.3
2022-11-10T04:23:22.236Z,10.1
2022-11-10T04:38:33.380Z,9.7
2022-11-10T04:53:42.693Z,12.6
2022-11-10T05:08:52.454Z,11.8
2022-11-10T05:24:01.539Z,11.4
2022-11-10T05:39:11.037Z,12.6
2022-11-10T05:54:22.724Z,14.3
2022-11-10T06:09:31.747Z,15.1
2022-11-10T06:24:40.763Z,15.3
2022-11-10T06:39:50.533Z,16.7
2022-11-10T06:55:00.202Z,16.3
2022-11-10T07:10:12.770Z,16.5
2022-11-10T07:25:22.439Z,16.5
2022-11-10T07:40:32.254Z,14.4
2022-11-10T07:55:44.296Z,13.9
2022-11-10T08:10:56.792Z,12.7
2022-11-10T08:26:06.801Z,14
2022-11-10T08:41:16.330Z,12.8
2022-11-10T08:56:26.401Z,12.4
2022-11-10T09:11:35.708Z,11.9
2022-11-10T09:26:47.888Z,10.3
2022-11-10T09:44:27.697Z,10.9
2022-11-10T09:59:38.548Z,8.4
2022-11-10T10:14:51.188Z,8.4
2022-11-10T10:30:00.850Z,7
2022-11-10T10:45:10.920Z,6.9
2022-11-10T11:00:20.995Z,6
2022-11-10T11:15:30.386Z,5.2
2022-11-10T11:30:39.957Z,4.6
2022-11-10T11:45:50.468Z,3.4
2022-11-10T12:01:00.360Z,3.7
2022-11-10T12:16:10.431Z,3.2
2022-11-10T12:31:20.525Z,3.5
2022-11-10T12:46:30.550Z,3.2
2022-11-10T13:01:43.074Z,2.9
2022-11-10T13:16:54.505Z,3
2022-11-10T13:32:04.506Z,2.7
2022-11-10T13:47:13.632Z,2.8
2022-11-10T14:02:22.941Z,3.1
2022-11-10T14:17:32.263Z,3.3
2022-11-10T14:32:42.201Z,2.9
2022-11-10T14:47:52.594Z,3.2
2022-11-10T15:03:03.005Z,3.3
2022-11-10T15:18:13.410Z,4.2
2022-11-10T15:33:23.367Z,3
2022-11-10T15:48:33.478Z,3.2
2022-11-10T16:03:43.748Z,3.8
2022-11-10T16:18:55.965Z,3.4
2022-11-10T16:34:05.937Z,3
2022-11-10T16:49:15.872Z,3.6
2022-11-10T17:04:25.809Z,3.3
2022-11-10T17:19:35.836Z,4.1
2022-11-10T17:34:45.722Z,4.5
2022-11-10T17:49:55.914Z,3.7
2022-11-10T18:05:06.151Z,3.3
2022-11-10T18:20:16.292Z,3.5
2022-11-10T18:35:26.633Z,3.9
2022-11-10T18:50:36.389Z,3.3
2022-11-10T19:05:46.593Z,3.4
2022-11-10T19:20:57.040Z,4.3
2022-11-10T19:36:07.183Z,3.2
2022-11-10T19:51:17.119Z,3.9
2022-11-10T20:06:27.450Z,2.6
2022-11-10T20:21:37.500Z,3.1
2022-11-10T20:36:47.733Z,2.9
2022-11-10T20:51:58.272Z,2.7
2022-11-10T21:07:08.596Z,3
2022-11-10T21:22:19.073Z,2.7
2022-11-10T21:37:29.034Z,2.8
2022-11-10T21:52:38.925Z,3.3
2022-11-10T22:07:49.890Z,2.4
2022-11-10T22:23:00.329Z,2.5
2022-11-10T22:39:37.100Z,2.5
2022-11-10T22:54:51.253Z,2.3
2022-11-10T23:10:01.469Z,2.5
2022-11-10T23:25:11.404Z,2.7
2022-11-10T23:40:21.025Z,2.6
2022-11-10T23:55:30.572Z,2.4
